sensor_id;sensor_type;location;lat;lon;timestamp;P1;durP1;ratioP1;P2;durP2;ratioP2
45366;SDS011;31100;55.848;37.636;2022-11-20T00:00:50;20.88;;;11.73;;
45366;SDS011;31100;55.848;37.636;2022-11-20T00:03:16;24.23;;;12.10;;
45366;SDS011;31100;55.848;37.636;2022-11-20T00:05:42;15.52;;;9.05;;
45366;SDS011;31100;55.848;37.636;2022-11-20T00:08:08;19.20;;;10.57;;
45366;SDS011;31100;55.848;37.636;2022-11-20T00:10:35;20.83;;;11.60;;
45366;SDS011;31100;55.848;37.636;2022-11-20T00:13:02;20.27;;;10.27;;
45366;SDS011;31100;55.848;37.636;2022-11-20T00:15:27;22.05;;;10.30;;
45366;SDS011;31100;55.848;37.636;2022-11-20T00:17:53;20.10;;;11.10;;
45366;SDS011;31100;55.848;37.636;2022-11-20T00:20:19;20.25;;;11.32;;
45366;SDS011;31100;55.848;37.636;2022-11-20T00:22:44;21.27;;;10.73;;
45366;SDS011;31100;55.848;37.636;2022-11-20T00:25:10;18.25;;;9.95;;
45366;SDS011;31100;55.848;37.636;2022-11-20T00:27:36;20.88;;;11.13;;
45366;SDS011;31100;55.848;37.636;2022-11-20T00:30:02;19.15;;;10.88;;
45366;SDS011;31100;55.848;37.636;2022-11-20T00:32:29;21.52;;;10.95;;
45366;SDS011;31100;55.848;37.636;2022-11-20T00:34:55;19.67;;;10.75;;
45366;SDS011;31100;55.848;37.636;2022-11-20T00:37:20;18.50;;;11.07;;
45366;SDS011;31100;55.848;37.636;2022-11-20T00:39:46;18.67;;;11.27;;
45366;SDS011;31100;55.848;37.636;2022-11-20T00:42:11;18.30;;;10.10;;
45366;SDS011;31100;55.848;37.636;2022-11-20T00:44:37;13.60;;;8.80;;
45366;SDS011;31100;55.848;37.636;2022-11-20T00:47:02;15.30;;;9.07;;
45366;SDS011;31100;55.848;37.636;2022-11-20T00:49:28;15.65;;;9.20;;
45366;SDS011;31100;55.848;37.636;2022-11-20T00:51:54;18.83;;;10.10;;
45366;SDS011;31100;55.848;37.636;2022-11-20T00:54:19;17.52;;;9.45;;
45366;SDS011;31100;55.848;37.636;2022-11-20T00:56:45;15.55;;;9.02;;
45366;SDS011;31100;55.848;37.636;2022-11-20T00:59:10;18.80;;;10.38;;
45366;SDS011;31100;55.848;37.636;2022-11-20T01:01:36;18.10;;;9.43;;
45366;SDS011;31100;55.848;37.636;2022-11-20T01:04:02;14.70;;;9.20;;
45366;SDS011;31100;55.848;37.636;2022-11-20T01:06:29;17.08;;;9.07;;
45366;SDS011;31100;55.848;37.636;2022-11-20T01:08:57;15.57;;;9.02;;
45366;SDS011;31100;55.848;37.636;2022-11-20T01:11:24;15.38;;;8.45;;
45366;SDS011;31100;55.848;37.636;2022-11-20T01:13:52;14.85;;;8.13;;
45366;SDS011;31100;55.848;37.636;2022-11-20T01:16:22;13.73;;;7.53;;
45366;SDS011;31100;55.848;37.636;2022-11-20T01:18:53;17.90;;;8.48;;
45366;SDS011;31100;55.848;37.636;2022-11-20T01:21:21;12.48;;;7.07;;
45366;SDS011;31100;55.848;37.636;2022-11-20T01:23:48;13.02;;;7.82;;
45366;SDS011;31100;55.848;37.636;2022-11-20T01:26:16;13.85;;;7.65;;
45366;SDS011;31100;55.848;37.636;2022-11-20T01:28:43;10.73;;;6.55;;
45366;SDS011;31100;55.848;37.636;2022-11-20T01:31:19;12.50;;;7.60;;
45366;SDS011;31100;55.848;37.636;2022-11-20T01:33:47;13.52;;;7.72;;
45366;SDS011;31100;55.848;37.636;2022-11-20T01:36:14;13.45;;;7.45;;
45366;SDS011;31100;55.848;37.636;2022-11-20T01:38:40;14.20;;;7.93;;
45366;SDS011;31100;55.848;37.636;2022-11-20T01:41:07;15.77;;;8.55;;
45366;SDS011;31100;55.848;37.636;2022-11-20T01:43:33;13.82;;;8.02;;
45366;SDS011;31100;55.848;37.636;2022-11-20T01:51:40;12.90;;;8.27;;
45366;SDS011;31100;55.848;37.636;2022-11-20T01:54:06;13.02;;;7.20;;
45366;SDS011;31100;55.848;37.636;2022-11-20T01:56:35;16.65;;;8.95;;
45366;SDS011;31100;55.848;37.636;2022-11-20T01:59:04;15.35;;;8.25;;
45366;SDS011;31100;55.848;37.636;2022-11-20T02:01:31;14.55;;;8.50;;
45366;SDS011;31100;55.848;37.636;2022-11-20T02:03:56;14.38;;;8.35;;
45366;SDS011;31100;55.848;37.636;2022-11-20T02:06:24;13.38;;;7.50;;
45366;SDS011;31100;55.848;37.636;2022-11-20T02:08:51;16.00;;;8.60;;
45366;SDS011;31100;55.848;37.636;2022-11-20T02:11:17;11.57;;;6.57;;
45366;SDS011;31100;55.848;37.636;2022-11-20T02:13:43;12.98;;;6.97;;
45366;SDS011;31100;55.848;37.636;2022-11-20T02:16:32;12.63;;;7.60;;
45366;SDS011;31100;55.848;37.636;2022-11-20T02:18:58;11.43;;;7.03;;
45366;SDS011;31100;55.848;37.636;2022-11-20T02:21:37;12.23;;;7.10;;
45366;SDS011;31100;55.848;37.636;2022-11-20T02:24:15;12.63;;;7.18;;
45366;SDS011;31100;55.848;37.636;2022-11-20T02:27:04;15.00;;;7.75;;
45366;SDS011;31100;55.848;37.636;2022-11-20T02:29:42;14.38;;;8.07;;
45366;SDS011;31100;55.848;37.636;2022-11-20T02:32:28;12.20;;;6.75;;
45366;SDS011;31100;55.848;37.636;2022-11-20T02:34:58;13.48;;;7.35;;
45366;SDS011;31100;55.848;37.636;2022-11-20T02:37:32;14.73;;;8.18;;
45366;SDS011;31100;55.848;37.636;2022-11-20T02:39:59;13.50;;;7.70;;
45366;SDS011;31100;55.848;37.636;2022-11-20T02:42:25;13.43;;;8.45;;
45366;SDS011;31100;55.848;37.636;2022-11-20T02:44:50;15.23;;;7.93;;
45366;SDS011;31100;55.848;37.636;2022-11-20T02:47:16;13.90;;;7.60;;
45366;SDS011;31100;55.848;37.636;2022-11-20T02:49:41;14.52;;;7.68;;
45366;SDS011;31100;55.848;37.636;2022-11-20T02:52:07;13.90;;;8.05;;
45366;SDS011;31100;55.848;37.636;2022-11-20T02:54:32;14.38;;;7.38;;
45366;SDS011;31100;55.848;37.636;2022-11-20T02:56:58;14.27;;;8.30;;
45366;SDS011;31100;55.848;37.636;2022-11-20T02:59:23;13.93;;;7.93;;
45366;SDS011;31100;55.848;37.636;2022-11-20T03:01:49;15.63;;;8.85;;
45366;SDS011;31100;55.848;37.636;2022-11-20T03:04:14;15.13;;;7.60;;
45366;SDS011;31100;55.848;37.636;2022-11-20T03:06:40;13.18;;;7.88;;
45366;SDS011;31100;55.848;37.636;2022-11-20T03:09:06;11.07;;;7.40;;
45366;SDS011;31100;55.848;37.636;2022-11-20T03:11:31;13.27;;;7.80;;
45366;SDS011;31100;55.848;37.636;2022-11-20T03:13:57;13.43;;;7.85;;
45366;SDS011;31100;55.848;37.636;2022-11-20T03:16:23;15.18;;;7.82;;
45366;SDS011;31100;55.848;37.636;2022-11-20T03:18:49;14.55;;;7.75;;
45366;SDS011;31100;55.848;37.636;2022-11-20T03:21:14;14.35;;;7.55;;
45366;SDS011;31100;55.848;37.636;2022-11-20T03:23:41;11.82;;;7.32;;
45366;SDS011;31100;55.848;37.636;2022-11-20T03:26:17;15.10;;;7.90;;
45366;SDS011;31100;55.848;37.636;2022-11-20T03:28:48;13.20;;;7.65;;
45366;SDS011;31100;55.848;37.636;2022-11-20T03:31:16;12.18;;;7.78;;
45366;SDS011;31100;55.848;37.636;2022-11-20T03:33:42;14.45;;;7.65;;
45366;SDS011;31100;55.848;37.636;2022-11-20T03:36:09;11.98;;;7.22;;
45366;SDS011;31100;55.848;37.636;2022-11-20T03:38:36;17.02;;;8.57;;
45366;SDS011;31100;55.848;37.636;2022-11-20T03:41:02;16.33;;;9.52;;
45366;SDS011;31100;55.848;37.636;2022-11-20T03:43:33;13.55;;;8.05;;
45366;SDS011;31100;55.848;37.636;2022-11-20T03:45:58;15.35;;;8.02;;
45366;SDS011;31100;55.848;37.636;2022-11-20T03:48:24;13.93;;;8.05;;
45366;SDS011;31100;55.848;37.636;2022-11-20T03:50:50;15.13;;;8.55;;
45366;SDS011;31100;55.848;37.636;2022-11-20T03:53:16;13.55;;;7.20;;
45366;SDS011;31100;55.848;37.636;2022-11-20T03:55:42;15.07;;;7.97;;
45366;SDS011;31100;55.848;37.636;2022-11-20T03:58:08;15.70;;;7.47;;
45366;SDS011;31100;55.848;37.636;2022-11-20T04:00:34;13.93;;;8.10;;
45366;SDS011;31100;55.848;37.636;2022-11-20T04:03:03;16.85;;;8.98;;
45366;SDS011;31100;55.848;37.636;2022-11-20T04:05:28;16.13;;;9.35;;
45366;SDS011;31100;55.848;37.636;2022-11-20T04:07:54;13.70;;;7.78;;
45366;SDS011;31100;55.848;37.636;2022-11-20T04:10:19;15.25;;;8.95;;
45366;SDS011;31100;55.848;37.636;2022-11-20T04:12:45;14.15;;;8.60;;
45366;SDS011;31100;55.848;37.636;2022-11-20T04:15:11;15.07;;;8.65;;
45366;SDS011;31100;55.848;37.636;2022-11-20T04:17:36;15.18;;;8.95;;
45366;SDS011;31100;55.848;37.636;2022-11-20T04:20:02;17.38;;;8.52;;
45366;SDS011;31100;55.848;37.636;2022-11-20T04:22:29;13.80;;;7.97;;
45366;SDS011;31100;55.848;37.636;2022-11-20T04:24:54;15.50;;;8.70;;
45366;SDS011;31100;55.848;37.636;2022-11-20T04:27:20;16.70;;;9.15;;
45366;SDS011;31100;55.848;37.636;2022-11-20T04:29:46;13.40;;;7.15;;
45366;SDS011;31100;55.848;37.636;2022-11-20T04:32:11;15.95;;;7.60;;
45366;SDS011;31100;55.848;37.636;2022-11-20T04:34:37;14.70;;;8.38;;
45366;SDS011;31100;55.848;37.636;2022-11-20T04:37:02;14.82;;;8.57;;
45366;SDS011;31100;55.848;37.636;2022-11-20T04:39:28;15.00;;;7.80;;
45366;SDS011;31100;55.848;37.636;2022-11-20T04:41:53;15.90;;;9.25;;
45366;SDS011;31100;55.848;37.636;2022-11-20T04:44:39;17.55;;;9.70;;
45366;SDS011;31100;55.848;37.636;2022-11-20T04:47:04;14.70;;;7.78;;
45366;SDS011;31100;55.848;37.636;2022-11-20T04:49:30;16.38;;;8.93;;
45366;SDS011;31100;55.848;37.636;2022-11-20T04:51:57;16.50;;;8.65;;
45366;SDS011;31100;55.848;37.636;2022-11-20T04:54:22;15.80;;;9.30;;
45366;SDS011;31100;55.848;37.636;2022-11-20T04:56:48;16.17;;;9.52;;
45366;SDS011;31100;55.848;37.636;2022-11-20T04:59:14;15.02;;;8.35;;
45366;SDS011;31100;55.848;37.636;2022-11-20T05:01:39;16.55;;;9.30;;
45366;SDS011;31100;55.848;37.636;2022-11-20T05:04:05;13.32;;;8.27;;
45366;SDS011;31100;55.848;37.636;2022-11-20T05:06:30;16.80;;;9.40;;
45366;SDS011;31100;55.848;37.636;2022-11-20T05:08:56;17.80;;;9.68;;
45366;SDS011;31100;55.848;37.636;2022-11-20T05:11:22;16.45;;;9.70;;
45366;SDS011;31100;55.848;37.636;2022-11-20T05:13:48;16.85;;;9.85;;
45366;SDS011;31100;55.848;37.636;2022-11-20T05:16:15;16.65;;;9.13;;
45366;SDS011;31100;55.848;37.636;2022-11-20T05:18:42;19.42;;;9.93;;
45366;SDS011;31100;55.848;37.636;2022-11-20T05:21:08;16.23;;;8.30;;
45366;SDS011;31100;55.848;37.636;2022-11-20T05:23:34;17.98;;;9.88;;
45366;SDS011;31100;55.848;37.636;2022-11-20T05:26:00;18.75;;;10.27;;
45366;SDS011;31100;55.848;37.636;2022-11-20T05:28:27;17.23;;;10.52;;
45366;SDS011;31100;55.848;37.636;2022-11-20T05:30:54;15.95;;;9.35;;
45366;SDS011;31100;55.848;37.636;2022-11-20T05:33:19;17.13;;;9.55;;
45366;SDS011;31100;55.848;37.636;2022-11-20T05:35:45;16.05;;;9.13;;
45366;SDS011;31100;55.848;37.636;2022-11-20T05:38:11;20.23;;;10.15;;
45366;SDS011;31100;55.848;37.636;2022-11-20T05:40:36;19.35;;;9.75;;
45366;SDS011;31100;55.848;37.636;2022-11-20T05:43:02;18.80;;;9.98;;
45366;SDS011;31100;55.848;37.636;2022-11-20T05:45:28;17.63;;;10.43;;
45366;SDS011;31100;55.848;37.636;2022-11-20T05:47:53;16.55;;;10.32;;
45366;SDS011;31100;55.848;37.636;2022-11-20T05:50:22;19.90;;;10.52;;
45366;SDS011;31100;55.848;37.636;2022-11-20T05:52:47;16.92;;;10.10;;
45366;SDS011;31100;55.848;37.636;2022-11-20T05:55:13;19.67;;;9.65;;
45366;SDS011;31100;55.848;37.636;2022-11-20T05:57:39;17.63;;;9.63;;
45366;SDS011;31100;55.848;37.636;2022-11-20T06:00:04;19.83;;;10.93;;
45366;SDS011;31100;55.848;37.636;2022-11-20T06:02:33;17.85;;;9.13;;
45366;SDS011;31100;55.848;37.636;2022-11-20T06:05:00;19.40;;;10.13;;
45366;SDS011;31100;55.848;37.636;2022-11-20T06:07:25;17.50;;;10.10;;
45366;SDS011;31100;55.848;37.636;2022-11-20T06:09:51;18.25;;;10.98;;
45366;SDS011;31100;55.848;37.636;2022-11-20T06:12:16;18.67;;;10.80;;
45366;SDS011;31100;55.848;37.636;2022-11-20T06:14:42;22.00;;;11.27;;
45366;SDS011;31100;55.848;37.636;2022-11-20T06:17:07;19.98;;;10.70;;
45366;SDS011;31100;55.848;37.636;2022-11-20T06:19:33;22.13;;;12.20;;
45366;SDS011;31100;55.848;37.636;2022-11-20T06:21:58;19.73;;;11.07;;
45366;SDS011;31100;55.848;37.636;2022-11-20T06:24:24;25.90;;;12.50;;
45366;SDS011;31100;55.848;37.636;2022-11-20T06:26:50;22.90;;;12.18;;
45366;SDS011;31100;55.848;37.636;2022-11-20T06:29:16;22.77;;;10.90;;
45366;SDS011;31100;55.848;37.636;2022-11-20T06:31:41;24.10;;;11.18;;
45366;SDS011;31100;55.848;37.636;2022-11-20T06:34:07;25.45;;;13.95;;
45366;SDS011;31100;55.848;37.636;2022-11-20T06:36:33;21.50;;;11.32;;
45366;SDS011;31100;55.848;37.636;2022-11-20T06:38:59;22.60;;;12.15;;
45366;SDS011;31100;55.848;37.636;2022-11-20T06:41:25;22.52;;;11.38;;
45366;SDS011;31100;55.848;37.636;2022-11-20T06:43:51;23.30;;;11.90;;
45366;SDS011;31100;55.848;37.636;2022-11-20T06:46:17;21.25;;;11.60;;
45366;SDS011;31100;55.848;37.636;2022-11-20T06:48:43;25.65;;;11.80;;
45366;SDS011;31100;55.848;37.636;2022-11-20T06:51:09;23.08;;;11.88;;
45366;SDS011;31100;55.848;37.636;2022-11-20T06:53:35;26.35;;;11.60;;
45366;SDS011;31100;55.848;37.636;2022-11-20T06:56:01;22.17;;;11.20;;
45366;SDS011;31100;55.848;37.636;2022-11-20T06:58:27;19.38;;;11.10;;
45366;SDS011;31100;55.848;37.636;2022-11-20T07:00:53;26.58;;;12.45;;
45366;SDS011;31100;55.848;37.636;2022-11-20T07:03:22;21.60;;;11.07;;
45366;SDS011;31100;55.848;37.636;2022-11-20T07:05:48;19.73;;;10.75;;
45366;SDS011;31100;55.848;37.636;2022-11-20T07:08:14;19.60;;;10.65;;
45366;SDS011;31100;55.848;37.636;2022-11-20T07:10:39;24.55;;;11.40;;
45366;SDS011;31100;55.848;37.636;2022-11-20T07:13:05;20.75;;;11.05;;
45366;SDS011;31100;55.848;37.636;2022-11-20T07:15:32;20.48;;;10.85;;
45366;SDS011;31100;55.848;37.636;2022-11-20T07:18:01;22.35;;;11.93;;
45366;SDS011;31100;55.848;37.636;2022-11-20T07:20:26;20.92;;;11.07;;
45366;SDS011;31100;55.848;37.636;2022-11-20T07:22:55;17.10;;;9.27;;
45366;SDS011;31100;55.848;37.636;2022-11-20T07:25:22;19.88;;;10.43;;
45366;SDS011;31100;55.848;37.636;2022-11-20T07:27:48;17.52;;;10.32;;
45366;SDS011;31100;55.848;37.636;2022-11-20T07:30:14;20.10;;;10.30;;
45366;SDS011;31100;55.848;37.636;2022-11-20T07:32:40;19.75;;;11.15;;
45366;SDS011;31100;55.848;37.636;2022-11-20T07:35:06;17.38;;;10.88;;
45366;SDS011;31100;55.848;37.636;2022-11-20T07:37:35;20.50;;;10.63;;
45366;SDS011;31100;55.848;37.636;2022-11-20T07:40:00;19.08;;;10.40;;
45366;SDS011;31100;55.848;37.636;2022-11-20T07:42:27;18.13;;;10.80;;
45366;SDS011;31100;55.848;37.636;2022-11-20T07:44:52;20.73;;;11.43;;
45366;SDS011;31100;55.848;37.636;2022-11-20T07:47:18;17.98;;;10.57;;
45366;SDS011;31100;55.848;37.636;2022-11-20T07:49:43;18.23;;;10.82;;
45366;SDS011;31100;55.848;37.636;2022-11-20T07:52:09;17.80;;;10.32;;
45366;SDS011;31100;55.848;37.636;2022-11-20T07:54:35;20.10;;;10.80;;
45366;SDS011;31100;55.848;37.636;2022-11-20T07:57:00;20.27;;;11.43;;
45366;SDS011;31100;55.848;37.636;2022-11-20T07:59:26;18.90;;;10.93;;
45366;SDS011;31100;55.848;37.636;2022-11-20T08:01:51;19.92;;;10.98;;
45366;SDS011;31100;55.848;37.636;2022-11-20T08:04:17;17.58;;;10.32;;
45366;SDS011;31100;55.848;37.636;2022-11-20T08:06:42;19.25;;;11.18;;
45366;SDS011;31100;55.848;37.636;2022-11-20T08:09:08;18.35;;;11.07;;
45366;SDS011;31100;55.848;37.636;2022-11-20T08:11:34;22.23;;;11.55;;
45366;SDS011;31100;55.848;37.636;2022-11-20T08:14:18;21.98;;;11.25;;
45366;SDS011;31100;55.848;37.636;2022-11-20T08:16:45;17.80;;;11.05;;
45366;SDS011;31100;55.848;37.636;2022-11-20T08:19:15;20.25;;;11.35;;
45366;SDS011;31100;55.848;37.636;2022-11-20T08:21:42;18.52;;;10.95;;
45366;SDS011;31100;55.848;37.636;2022-11-20T08:24:08;24.48;;;14.13;;
45366;SDS011;31100;55.848;37.636;2022-11-20T08:26:34;23.23;;;14.07;;
45366;SDS011;31100;55.848;37.636;2022-11-20T08:29:02;23.80;;;13.20;;
45366;SDS011;31100;55.848;37.636;2022-11-20T08:31:28;20.48;;;11.50;;
45366;SDS011;31100;55.848;37.636;2022-11-20T08:33:54;20.08;;;10.88;;
45366;SDS011;31100;55.848;37.636;2022-11-20T08:36:20;19.67;;;11.75;;
45366;SDS011;31100;55.848;37.636;2022-11-20T08:38:47;21.23;;;12.20;;
45366;SDS011;31100;55.848;37.636;2022-11-20T08:41:14;21.63;;;11.98;;
45366;SDS011;31100;55.848;37.636;2022-11-20T08:43:49;20.90;;;11.32;;
45366;SDS011;31100;55.848;37.636;2022-11-20T08:46:18;16.77;;;10.15;;
45366;SDS011;31100;55.848;37.636;2022-11-20T08:48:44;21.40;;;11.13;;
45366;SDS011;31100;55.848;37.636;2022-11-20T08:51:11;19.58;;;11.32;;
45366;SDS011;31100;55.848;37.636;2022-11-20T08:53:37;17.25;;;10.75;;
45366;SDS011;31100;55.848;37.636;2022-11-20T08:56:03;19.65;;;12.05;;
45366;SDS011;31100;55.848;37.636;2022-11-20T08:58:29;19.55;;;11.40;;
45366;SDS011;31100;55.848;37.636;2022-11-20T09:00:54;18.98;;;11.32;;
45366;SDS011;31100;55.848;37.636;2022-11-20T09:03:20;20.17;;;12.43;;
45366;SDS011;31100;55.848;37.636;2022-11-20T09:05:46;24.05;;;11.65;;
45366;SDS011;31100;55.848;37.636;2022-11-20T09:08:11;26.70;;;12.73;;
45366;SDS011;31100;55.848;37.636;2022-11-20T09:10:37;24.50;;;11.95;;
45366;SDS011;31100;55.848;37.636;2022-11-20T09:13:04;25.75;;;12.20;;
45366;SDS011;31100;55.848;37.636;2022-11-20T09:15:30;25.52;;;14.73;;
45366;SDS011;31100;55.848;37.636;2022-11-20T09:17:56;24.00;;;13.10;;
45366;SDS011;31100;55.848;37.636;2022-11-20T09:20:23;20.70;;;11.10;;
45366;SDS011;31100;55.848;37.636;2022-11-20T09:22:49;19.88;;;11.68;;
45366;SDS011;31100;55.848;37.636;2022-11-20T09:25:14;19.75;;;11.35;;
45366;SDS011;31100;55.848;37.636;2022-11-20T09:27:40;23.73;;;12.00;;
45366;SDS011;31100;55.848;37.636;2022-11-20T09:30:11;21.35;;;12.52;;
45366;SDS011;31100;55.848;37.636;2022-11-20T09:32:41;20.63;;;11.52;;
45366;SDS011;31100;55.848;37.636;2022-11-20T09:35:07;22.48;;;12.65;;
45366;SDS011;31100;55.848;37.636;2022-11-20T09:37:33;20.95;;;11.85;;
45366;SDS011;31100;55.848;37.636;2022-11-20T09:39:59;26.48;;;13.18;;
45366;SDS011;31100;55.848;37.636;2022-11-20T09:48:20;26.65;;;12.80;;
45366;SDS011;31100;55.848;37.636;2022-11-20T09:53:34;25.58;;;13.82;;
45366;SDS011;31100;55.848;37.636;2022-11-20T09:56:28;22.42;;;11.85;;
45366;SDS011;31100;55.848;37.636;2022-11-20T09:58:55;24.83;;;13.07;;
45366;SDS011;31100;55.848;37.636;2022-11-20T10:01:26;27.80;;;13.00;;
45366;SDS011;31100;55.848;37.636;2022-11-20T10:03:56;24.73;;;14.00;;
45366;SDS011;31100;55.848;37.636;2022-11-20T10:06:40;25.08;;;13.80;;
45366;SDS011;31100;55.848;37.636;2022-11-20T10:14:28;29.92;;;14.73;;
45366;SDS011;31100;55.848;37.636;2022-11-20T10:25:18;29.20;;;15.00;;
45366;SDS011;31100;55.848;37.636;2022-11-20T10:30:51;25.25;;;14.55;;
45366;SDS011;31100;55.848;37.636;2022-11-20T10:33:33;25.33;;;14.32;;
45366;SDS011;31100;55.848;37.636;2022-11-20T10:41:06;28.48;;;14.27;;
45366;SDS011;31100;55.848;37.636;2022-11-20T10:47:11;31.20;;;15.07;;
45366;SDS011;31100;55.848;37.636;2022-11-20T10:49:38;28.23;;;15.50;;
45366;SDS011;31100;55.848;37.636;2022-11-20T11:00:21;33.50;;;16.10;;
45366;SDS011;31100;55.848;37.636;2022-11-20T11:02:47;37.33;;;20.50;;
45366;SDS011;31100;55.848;37.636;2022-11-20T11:05:22;39.28;;;19.55;;
45366;SDS011;31100;55.848;37.636;2022-11-20T11:07:55;35.78;;;18.42;;
45366;SDS011;31100;55.848;37.636;2022-11-20T11:12:49;32.67;;;17.35;;
45366;SDS011;31100;55.848;37.636;2022-11-20T11:15:25;38.00;;;18.52;;
45366;SDS011;31100;55.848;37.636;2022-11-20T11:17:53;36.92;;;18.08;;
45366;SDS011;31100;55.848;37.636;2022-11-20T11:20:19;28.52;;;15.80;;
45366;SDS011;31100;55.848;37.636;2022-11-20T11:22:53;40.97;;;17.63;;
45366;SDS011;31100;55.848;37.636;2022-11-20T11:27:46;32.85;;;18.00;;
45366;SDS011;31100;55.848;37.636;2022-11-20T11:30:14;39.95;;;17.42;;
45366;SDS011;31100;55.848;37.636;2022-11-20T11:32:41;35.45;;;17.92;;
45366;SDS011;31100;55.848;37.636;2022-11-20T11:35:18;33.08;;;17.83;;
45366;SDS011;31100;55.848;37.636;2022-11-20T11:37:54;31.80;;;16.95;;
45366;SDS011;31100;55.848;37.636;2022-11-20T11:40:27;34.63;;;17.30;;
45366;SDS011;31100;55.848;37.636;2022-11-20T11:42:57;32.08;;;16.25;;
45366;SDS011;31100;55.848;37.636;2022-11-20T11:45:26;30.60;;;15.15;;
45366;SDS011;31100;55.848;37.636;2022-11-20T11:47:52;27.52;;;13.63;;
45366;SDS011;31100;55.848;37.636;2022-11-20T11:50:27;24.42;;;13.75;;
45366;SDS011;31100;55.848;37.636;2022-11-20T11:53:13;26.05;;;13.90;;
45366;SDS011;31100;55.848;37.636;2022-11-20T11:55:45;25.80;;;14.15;;
45366;SDS011;31100;55.848;37.636;2022-11-20T11:58:48;29.65;;;14.80;;
45366;SDS011;31100;55.848;37.636;2022-11-20T12:01:35;28.88;;;15.40;;
45366;SDS011;31100;55.848;37.636;2022-11-20T12:06:55;24.95;;;12.65;;
45366;SDS011;31100;55.848;37.636;2022-11-20T12:11:51;21.85;;;11.85;;
45366;SDS011;31100;55.848;37.636;2022-11-20T12:14:28;20.00;;;11.75;;
45366;SDS011;31100;55.848;37.636;2022-11-20T12:16:58;19.55;;;10.00;;
45366;SDS011;31100;55.848;37.636;2022-11-20T12:19:25;19.00;;;11.27;;
45366;SDS011;31100;55.848;37.636;2022-11-20T12:30:30;15.45;;;9.40;;
45366;SDS011;31100;55.848;37.636;2022-11-20T12:44:20;21.20;;;11.25;;
45366;SDS011;31100;55.848;37.636;2022-11-20T12:49:56;18.77;;;11.00;;
45366;SDS011;31100;55.848;37.636;2022-11-20T12:53:15;20.17;;;10.32;;
45366;SDS011;31100;55.848;37.636;2022-11-20T13:00:58;20.77;;;11.43;;
45366;SDS011;31100;55.848;37.636;2022-11-20T13:06:16;18.08;;;10.40;;
45366;SDS011;31100;55.848;37.636;2022-11-20T13:08:48;18.37;;;10.60;;
45366;SDS011;31100;55.848;37.636;2022-11-20T13:11:32;20.38;;;10.88;;
45366;SDS011;31100;55.848;37.636;2022-11-20T13:14:11;19.13;;;11.25;;
45366;SDS011;31100;55.848;37.636;2022-11-20T13:16:48;19.00;;;10.35;;
45366;SDS011;31100;55.848;37.636;2022-11-20T13:19:30;18.52;;;10.40;;
45366;SDS011;31100;55.848;37.636;2022-11-20T13:21:55;20.52;;;12.27;;
45366;SDS011;31100;55.848;37.636;2022-11-20T13:27:33;19.70;;;11.45;;
45366;SDS011;31100;55.848;37.636;2022-11-20T13:29:34;20.75;;;10.63;;
45366;SDS011;31100;55.848;37.636;2022-11-20T13:32:13;17.45;;;10.07;;
45366;SDS011;31100;55.848;37.636;2022-11-20T13:34:56;17.47;;;9.73;;
45366;SDS011;31100;55.848;37.636;2022-11-20T13:37:35;18.98;;;11.40;;
45366;SDS011;31100;55.848;37.636;2022-11-20T13:42:44;18.50;;;10.95;;
45366;SDS011;31100;55.848;37.636;2022-11-20T13:45:22;18.33;;;11.35;;
45366;SDS011;31100;55.848;37.636;2022-11-20T13:47:52;17.58;;;10.63;;
45366;SDS011;31100;55.848;37.636;2022-11-20T13:50:19;18.05;;;10.38;;
45366;SDS011;31100;55.848;37.636;2022-11-20T13:55:38;20.92;;;12.07;;
45366;SDS011;31100;55.848;37.636;2022-11-20T13:58:23;20.00;;;12.25;;
45366;SDS011;31100;55.848;37.636;2022-11-20T14:01:05;19.80;;;11.40;;
45366;SDS011;31100;55.848;37.636;2022-11-20T14:03:34;22.55;;;12.50;;
45366;SDS011;31100;55.848;37.636;2022-11-20T14:06:04;23.50;;;12.50;;
45366;SDS011;31100;55.848;37.636;2022-11-20T14:08:36;19.17;;;11.20;;
45366;SDS011;31100;55.848;37.636;2022-11-20T14:11:06;19.33;;;11.52;;
45366;SDS011;31100;55.848;37.636;2022-11-20T14:13:37;20.67;;;11.38;;
45366;SDS011;31100;55.848;37.636;2022-11-20T14:16:03;20.23;;;11.52;;
45366;SDS011;31100;55.848;37.636;2022-11-20T14:18:28;20.67;;;11.93;;
45366;SDS011;31100;55.848;37.636;2022-11-20T14:20:54;20.38;;;11.45;;
45366;SDS011;31100;55.848;37.636;2022-11-20T14:23:23;23.42;;;11.65;;
45366;SDS011;31100;55.848;37.636;2022-11-20T14:25:50;19.20;;;11.88;;
45366;SDS011;31100;55.848;37.636;2022-11-20T14:28:29;17.73;;;10.48;;
45366;SDS011;31100;55.848;37.636;2022-11-20T14:30:56;17.92;;;11.23;;
45366;SDS011;31100;55.848;37.636;2022-11-20T14:33:22;18.88;;;10.52;;
45366;SDS011;31100;55.848;37.636;2022-11-20T14:35:52;17.75;;;11.13;;
45366;SDS011;31100;55.848;37.636;2022-11-20T14:38:21;19.85;;;10.98;;
45366;SDS011;31100;55.848;37.636;2022-11-20T14:40:49;18.35;;;10.68;;
45366;SDS011;31100;55.848;37.636;2022-11-20T14:43:19;23.80;;;11.77;;
45366;SDS011;31100;55.848;37.636;2022-11-20T14:45:48;17.83;;;10.90;;
45366;SDS011;31100;55.848;37.636;2022-11-20T14:48:21;19.42;;;11.32;;
45366;SDS011;31100;55.848;37.636;2022-11-20T14:50:51;18.10;;;10.38;;
45366;SDS011;31100;55.848;37.636;2022-11-20T14:53:22;18.42;;;10.85;;
45366;SDS011;31100;55.848;37.636;2022-11-20T14:55:54;19.38;;;11.70;;
45366;SDS011;31100;55.848;37.636;2022-11-20T14:58:24;20.92;;;11.00;;
45366;SDS011;31100;55.848;37.636;2022-11-20T15:00:59;19.92;;;10.95;;
45366;SDS011;31100;55.848;37.636;2022-11-20T15:03:33;18.58;;;11.35;;
45366;SDS011;31100;55.848;37.636;2022-11-20T15:06:00;18.30;;;10.63;;
45366;SDS011;31100;55.848;37.636;2022-11-20T15:08:26;20.48;;;11.07;;
45366;SDS011;31100;55.848;37.636;2022-11-20T15:10:52;19.88;;;11.40;;
45366;SDS011;31100;55.848;37.636;2022-11-20T15:16:00;18.98;;;11.40;;
45366;SDS011;31100;55.848;37.636;2022-11-20T15:18:28;17.73;;;11.20;;
45366;SDS011;31100;55.848;37.636;2022-11-20T15:20:57;18.10;;;10.55;;
45366;SDS011;31100;55.848;37.636;2022-11-20T15:23:28;15.77;;;10.57;;
45366;SDS011;31100;55.848;37.636;2022-11-20T15:25:54;17.98;;;10.57;;
45366;SDS011;31100;55.848;37.636;2022-11-20T15:28:21;17.55;;;10.05;;
45366;SDS011;31100;55.848;37.636;2022-11-20T15:30:49;18.67;;;10.60;;
45366;SDS011;31100;55.848;37.636;2022-11-20T15:33:15;19.15;;;11.18;;
45366;SDS011;31100;55.848;37.636;2022-11-20T15:35:41;17.23;;;10.23;;
45366;SDS011;31100;55.848;37.636;2022-11-20T15:38:07;15.65;;;9.55;;
45366;SDS011;31100;55.848;37.636;2022-11-20T15:40:32;16.23;;;9.40;;
45366;SDS011;31100;55.848;37.636;2022-11-20T15:42:58;14.85;;;9.73;;
45366;SDS011;31100;55.848;37.636;2022-11-20T15:45:33;14.65;;;9.32;;
45366;SDS011;31100;55.848;37.636;2022-11-20T15:48:04;14.73;;;9.10;;
45366;SDS011;31100;55.848;37.636;2022-11-20T15:50:36;14.82;;;8.95;;
45366;SDS011;31100;55.848;37.636;2022-11-20T15:53:05;16.75;;;10.27;;
45366;SDS011;31100;55.848;37.636;2022-11-20T15:55:31;15.00;;;9.15;;
45366;SDS011;31100;55.848;37.636;2022-11-20T15:57:56;16.17;;;10.05;;
45366;SDS011;31100;55.848;37.636;2022-11-20T16:00:22;21.23;;;10.13;;